sensor_id;sensor_type;location;lat;lon;timestamp;P1;durP1;ratioP1;P2;durP2;ratioP2
25615;SDS011;13482;48.234;13.006;2023-04-08T00:00:00;2.83;;;1.90;;
25615;SDS011;13482;48.234;13.006;2023-04-08T00:02:27;3.25;;;2.08;;
25615;SDS011;13482;48.234;13.006;2023-04-08T00:04:55;3.10;;;2.00;;
25615;SDS011;13482;48.234;13.006;2023-04-08T00:07:22;3.30;;;2.30;;
25615;SDS011;13482;48.234;13.006;2023-04-08T00:09:49;3.63;;;2.65;;
25615;SDS011;13482;48.234;13.006;2023-04-08T00:12:17;4.63;;;3.08;;
25615;SDS011;13482;48.234;13.006;2023-04-08T00:14:44;4.32;;;2.95;;
25615;SDS011;13482;48.234;13.006;2023-04-08T00:17:11;3.75;;;2.78;;
25615;SDS011;13482;48.234;13.006;2023-04-08T00:19:40;4.90;;;2.88;;
25615;SDS011;13482;48.234;13.006;2023-04-08T00:22:07;3.92;;;2.85;;
25615;SDS011;13482;48.234;13.006;2023-04-08T00:24:34;4.38;;;3.03;;
25615;SDS011;13482;48.234;13.006;2023-04-08T00:27:02;4.13;;;2.90;;
25615;SDS011;13482;48.234;13.006;2023-04-08T00:29:29;4.07;;;2.65;;
25615;SDS011;13482;48.234;13.006;2023-04-08T00:31:56;4.03;;;2.85;;
25615;SDS011;13482;48.234;13.006;2023-04-08T00:34:23;4.38;;;3.10;;
25615;SDS011;13482;48.234;13.006;2023-04-08T00:36:51;4.93;;;3.38;;
25615;SDS011;13482;48.234;13.006;2023-04-08T00:39:19;3.80;;;2.72;;
25615;SDS011;13482;48.234;13.006;2023-04-08T00:41:46;4.65;;;3.20;;
25615;SDS011;13482;48.234;13.006;2023-04-08T00:44:14;3.92;;;2.78;;
25615;SDS011;13482;48.234;13.006;2023-04-08T00:46:41;3.53;;;2.72;;
25615;SDS011;13482;48.234;13.006;2023-04-08T00:49:11;3.75;;;2.88;;
25615;SDS011;13482;48.234;13.006;2023-04-08T00:51:38;3.67;;;2.67;;
25615;SDS011;13482;48.234;13.006;2023-04-08T00:54:06;3.20;;;2.45;;
25615;SDS011;13482;48.234;13.006;2023-04-08T00:56:36;3.33;;;2.53;;
25615;SDS011;13482;48.234;13.006;2023-04-08T00:59:03;3.97;;;2.47;;
25615;SDS011;13482;48.234;13.006;2023-04-08T01:01:33;4.55;;;2.75;;
25615;SDS011;13482;48.234;13.006;2023-04-08T01:04:48;3.05;;;2.28;;
25615;SDS011;13482;48.234;13.006;2023-04-08T01:07:56;3.35;;;2.53;;
25615;SDS011;13482;48.234;13.006;2023-04-08T01:10:26;3.45;;;2.50;;
25615;SDS011;13482;48.234;13.006;2023-04-08T01:13:03;4.13;;;2.70;;
25615;SDS011;13482;48.234;13.006;2023-04-08T01:15:35;4.07;;;2.72;;
25615;SDS011;13482;48.234;13.006;2023-04-08T01:18:07;3.40;;;2.63;;
25615;SDS011;13482;48.234;13.006;2023-04-08T01:20:39;7.32;;;3.83;;
25615;SDS011;13482;48.234;13.006;2023-04-08T01:23:14;4.28;;;3.35;;
25615;SDS011;13482;48.234;13.006;2023-04-08T01:25:50;4.97;;;3.40;;
25615;SDS011;13482;48.234;13.006;2023-04-08T01:28:36;3.85;;;2.97;;
25615;SDS011;13482;48.234;13.006;2023-04-08T01:31:05;5.70;;;3.58;;
25615;SDS011;13482;48.234;13.006;2023-04-08T01:33:32;4.47;;;3.55;;
25615;SDS011;13482;48.234;13.006;2023-04-08T01:36:01;4.30;;;3.17;;
25615;SDS011;13482;48.234;13.006;2023-04-08T01:38:29;4.40;;;3.30;;
25615;SDS011;13482;48.234;13.006;2023-04-08T01:40:59;4.82;;;3.33;;
25615;SDS011;13482;48.234;13.006;2023-04-08T01:43:26;5.25;;;3.67;;
25615;SDS011;13482;48.234;13.006;2023-04-08T01:45:54;4.22;;;2.92;;
25615;SDS011;13482;48.234;13.006;2023-04-08T01:48:24;4.40;;;2.92;;
25615;SDS011;13482;48.234;13.006;2023-04-08T01:50:53;4.63;;;3.40;;
25615;SDS011;13482;48.234;13.006;2023-04-08T01:53:22;4.75;;;3.20;;
25615;SDS011;13482;48.234;13.006;2023-04-08T01:55:51;4.45;;;3.40;;
25615;SDS011;13482;48.234;13.006;2023-04-08T01:58:30;4.25;;;3.08;;
25615;SDS011;13482;48.234;13.006;2023-04-08T02:01:05;4.38;;;3.40;;
25615;SDS011;13482;48.234;13.006;2023-04-08T02:03:37;4.25;;;3.33;;
25615;SDS011;13482;48.234;13.006;2023-04-08T02:06:08;4.93;;;3.53;;
25615;SDS011;13482;48.234;13.006;2023-04-08T02:08:36;3.90;;;3.22;;
25615;SDS011;13482;48.234;13.006;2023-04-08T02:11:03;4.65;;;3.70;;
25615;SDS011;13482;48.234;13.006;2023-04-08T02:13:30;5.55;;;3.80;;
25615;SDS011;13482;48.234;13.006;2023-04-08T02:16:21;5.05;;;3.28;;
25615;SDS011;13482;48.234;13.006;2023-04-08T02:21:51;4.10;;;3.17;;
25615;SDS011;13482;48.234;13.006;2023-04-08T02:24:25;4.47;;;3.22;;
25615;SDS011;13482;48.234;13.006;2023-04-08T02:26:52;4.72;;;3.25;;
25615;SDS011;13482;48.234;13.006;2023-04-08T02:29:22;4.85;;;3.53;;
25615;SDS011;13482;48.234;13.006;2023-04-08T02:31:50;4.70;;;3.50;;
25615;SDS011;13482;48.234;13.006;2023-04-08T02:34:18;4.97;;;3.53;;
25615;SDS011;13482;48.234;13.006;2023-04-08T02:36:47;4.28;;;3.22;;
25615;SDS011;13482;48.234;13.006;2023-04-08T02:39:16;5.05;;;3.70;;
25615;SDS011;13482;48.234;13.006;2023-04-08T02:41:43;5.75;;;3.75;;
25615;SDS011;13482;48.234;13.006;2023-04-08T02:44:10;4.95;;;3.63;;
25615;SDS011;13482;48.234;13.006;2023-04-08T02:46:37;4.60;;;3.58;;
25615;SDS011;13482;48.234;13.006;2023-04-08T02:49:05;4.70;;;3.38;;
25615;SDS011;13482;48.234;13.006;2023-04-08T02:51:32;5.45;;;3.80;;
25615;SDS011;13482;48.234;13.006;2023-04-08T02:53:59;5.72;;;3.60;;
25615;SDS011;13482;48.234;13.006;2023-04-08T02:56:26;4.78;;;3.78;;
25615;SDS011;13482;48.234;13.006;2023-04-08T02:58:53;4.85;;;3.90;;
25615;SDS011;13482;48.234;13.006;2023-04-08T03:01:21;5.10;;;3.90;;
25615;SDS011;13482;48.234;13.006;2023-04-08T03:03:48;5.35;;;4.10;;
25615;SDS011;13482;48.234;13.006;2023-04-08T03:06:16;5.07;;;3.90;;
25615;SDS011;13482;48.234;13.006;2023-04-08T03:08:43;5.40;;;4.15;;
25615;SDS011;13482;48.234;13.006;2023-04-08T03:11:10;5.32;;;4.55;;
25615;SDS011;13482;48.234;13.006;2023-04-08T03:13:37;5.75;;;4.22;;
25615;SDS011;13482;48.234;13.006;2023-04-08T03:16:04;6.78;;;4.93;;
25615;SDS011;13482;48.234;13.006;2023-04-08T03:18:32;7.18;;;5.25;;
25615;SDS011;13482;48.234;13.006;2023-04-08T03:20:59;5.85;;;4.55;;
25615;SDS011;13482;48.234;13.006;2023-04-08T03:23:28;6.82;;;5.28;;
25615;SDS011;13482;48.234;13.006;2023-04-08T03:25:55;6.07;;;4.80;;
25615;SDS011;13482;48.234;13.006;2023-04-08T03:28:23;6.72;;;4.95;;
25615;SDS011;13482;48.234;13.006;2023-04-08T03:30:50;6.78;;;4.90;;
25615;SDS011;13482;48.234;13.006;2023-04-08T03:33:17;6.93;;;5.20;;
25615;SDS011;13482;48.234;13.006;2023-04-08T03:35:44;7.63;;;5.15;;
25615;SDS011;13482;48.234;13.006;2023-04-08T03:38:11;6.00;;;4.50;;
25615;SDS011;13482;48.234;13.006;2023-04-08T03:40:39;6.55;;;4.95;;
25615;SDS011;13482;48.234;13.006;2023-04-08T03:43:06;5.95;;;4.88;;
25615;SDS011;13482;48.234;13.006;2023-04-08T03:45:34;6.22;;;4.65;;
25615;SDS011;13482;48.234;13.006;2023-04-08T03:48:01;6.20;;;4.45;;
25615;SDS011;13482;48.234;13.006;2023-04-08T03:50:29;6.57;;;4.65;;
25615;SDS011;13482;48.234;13.006;2023-04-08T03:52:56;6.13;;;4.15;;
25615;SDS011;13482;48.234;13.006;2023-04-08T03:55:23;5.47;;;4.05;;
25615;SDS011;13482;48.234;13.006;2023-04-08T03:57:50;5.78;;;4.50;;
25615;SDS011;13482;48.234;13.006;2023-04-08T04:00:17;6.00;;;4.20;;
25615;SDS011;13482;48.234;13.006;2023-04-08T04:02:44;6.45;;;4.78;;
25615;SDS011;13482;48.234;13.006;2023-04-08T04:05:12;6.00;;;4.85;;
25615;SDS011;13482;48.234;13.006;2023-04-08T04:07:39;5.28;;;4.35;;
25615;SDS011;13482;48.234;13.006;2023-04-08T04:10:06;5.35;;;4.35;;
25615;SDS011;13482;48.234;13.006;2023-04-08T04:12:35;6.15;;;4.78;;
25615;SDS011;13482;48.234;13.006;2023-04-08T04:15:03;7.75;;;4.90;;
25615;SDS011;13482;48.234;13.006;2023-04-08T04:17:30;6.25;;;4.57;;
25615;SDS011;13482;48.234;13.006;2023-04-08T04:19:58;5.18;;;4.28;;
25615;SDS011;13482;48.234;13.006;2023-04-08T04:22:25;5.78;;;4.22;;
25615;SDS011;13482;48.234;13.006;2023-04-08T04:24:52;5.75;;;4.18;;
25615;SDS011;13482;48.234;13.006;2023-04-08T04:27:19;5.25;;;4.15;;
25615;SDS011;13482;48.234;13.006;2023-04-08T04:29:46;5.78;;;4.35;;
25615;SDS011;13482;48.234;13.006;2023-04-08T04:32:13;5.32;;;4.28;;
25615;SDS011;13482;48.234;13.006;2023-04-08T04:34:41;5.65;;;4.75;;
25615;SDS011;13482;48.234;13.006;2023-04-08T04:37:09;5.72;;;4.47;;
25615;SDS011;13482;48.234;13.006;2023-04-08T04:39:37;5.75;;;4.20;;
25615;SDS011;13482;48.234;13.006;2023-04-08T04:42:05;5.72;;;4.30;;
25615;SDS011;13482;48.234;13.006;2023-04-08T04:44:32;5.53;;;4.07;;
25615;SDS011;13482;48.234;13.006;2023-04-08T04:46:59;7.68;;;4.75;;
25615;SDS011;13482;48.234;13.006;2023-04-08T04:49:26;5.90;;;4.43;;
25615;SDS011;13482;48.234;13.006;2023-04-08T04:51:54;6.80;;;4.80;;
25615;SDS011;13482;48.234;13.006;2023-04-08T04:54:21;5.72;;;4.57;;
25615;SDS011;13482;48.234;13.006;2023-04-08T04:56:48;6.32;;;4.38;;
25615;SDS011;13482;48.234;13.006;2023-04-08T04:59:15;6.10;;;4.53;;
25615;SDS011;13482;48.234;13.006;2023-04-08T05:01:42;5.68;;;4.60;;
25615;SDS011;13482;48.234;13.006;2023-04-08T05:04:09;8.68;;;5.28;;
25615;SDS011;13482;48.234;13.006;2023-04-08T05:06:37;5.93;;;4.43;;
25615;SDS011;13482;48.234;13.006;2023-04-08T05:09:04;6.15;;;4.78;;
25615;SDS011;13482;48.234;13.006;2023-04-08T05:11:31;6.72;;;5.05;;
25615;SDS011;13482;48.234;13.006;2023-04-08T05:13:58;8.13;;;4.88;;
25615;SDS011;13482;48.234;13.006;2023-04-08T05:16:25;6.57;;;5.00;;
25615;SDS011;13482;48.234;13.006;2023-04-08T05:18:52;5.82;;;4.53;;
25615;SDS011;13482;48.234;13.006;2023-04-08T05:21:19;5.97;;;4.65;;
25615;SDS011;13482;48.234;13.006;2023-04-08T05:23:46;5.57;;;4.45;;
25615;SDS011;13482;48.234;13.006;2023-04-08T05:26:13;6.22;;;5.13;;
25615;SDS011;13482;48.234;13.006;2023-04-08T05:28:41;6.43;;;4.90;;
25615;SDS011;13482;48.234;13.006;2023-04-08T05:31:09;5.93;;;4.80;;
25615;SDS011;13482;48.234;13.006;2023-04-08T05:33:37;6.22;;;4.60;;
25615;SDS011;13482;48.234;13.006;2023-04-08T05:36:04;5.97;;;4.63;;
25615;SDS011;13482;48.234;13.006;2023-04-08T05:38:31;6.30;;;4.85;;
25615;SDS011;13482;48.234;13.006;2023-04-08T05:40:59;6.30;;;5.00;;
25615;SDS011;13482;48.234;13.006;2023-04-08T05:43:26;6.45;;;4.85;;
25615;SDS011;13482;48.234;13.006;2023-04-08T05:45:54;7.40;;;5.30;;
25615;SDS011;13482;48.234;13.006;2023-04-08T05:48:21;6.50;;;5.35;;
25615;SDS011;13482;48.234;13.006;2023-04-08T05:50:48;6.28;;;5.10;;
25615;SDS011;13482;48.234;13.006;2023-04-08T05:53:15;7.20;;;5.22;;
25615;SDS011;13482;48.234;13.006;2023-04-08T05:55:43;7.22;;;5.35;;
25615;SDS011;13482;48.234;13.006;2023-04-08T05:58:10;5.97;;;4.65;;
25615;SDS011;13482;48.234;13.006;2023-04-08T06:00:37;6.82;;;5.03;;
25615;SDS011;13482;48.234;13.006;2023-04-08T06:03:04;6.47;;;5.03;;
25615;SDS011;13482;48.234;13.006;2023-04-08T06:05:32;6.18;;;5.15;;
25615;SDS011;13482;48.234;13.006;2023-04-08T06:08:01;6.43;;;4.97;;
25615;SDS011;13482;48.234;13.006;2023-04-08T06:10:29;6.72;;;5.13;;
25615;SDS011;13482;48.234;13.006;2023-04-08T06:12:56;6.60;;;5.18;;
25615;SDS011;13482;48.234;13.006;2023-04-08T06:15:26;7.10;;;5.03;;
25615;SDS011;13482;48.234;13.006;2023-04-08T06:17:53;6.85;;;5.20;;
25615;SDS011;13482;48.234;13.006;2023-04-08T06:20:20;7.57;;;5.43;;
25615;SDS011;13482;48.234;13.006;2023-04-08T06:22:48;7.47;;;5.43;;
25615;SDS011;13482;48.234;13.006;2023-04-08T06:25:15;6.47;;;5.47;;
25615;SDS011;13482;48.234;13.006;2023-04-08T06:27:42;5.90;;;4.70;;
25615;SDS011;13482;48.234;13.006;2023-04-08T06:30:10;6.18;;;4.75;;
25615;SDS011;13482;48.234;13.006;2023-04-08T06:32:37;7.03;;;5.40;;
25615;SDS011;13482;48.234;13.006;2023-04-08T06:35:04;5.75;;;4.55;;
25615;SDS011;13482;48.234;13.006;2023-04-08T06:37:33;6.32;;;4.80;;
25615;SDS011;13482;48.234;13.006;2023-04-08T06:40:04;6.13;;;4.72;;
25615;SDS011;13482;48.234;13.006;2023-04-08T06:42:32;6.72;;;4.40;;
25615;SDS011;13482;48.234;13.006;2023-04-08T06:44:59;6.80;;;5.22;;
25615;SDS011;13482;48.234;13.006;2023-04-08T06:47:26;6.72;;;5.10;;
25615;SDS011;13482;48.234;13.006;2023-04-08T06:49:54;7.22;;;5.35;;
25615;SDS011;13482;48.234;13.006;2023-04-08T06:52:21;7.38;;;6.00;;
25615;SDS011;13482;48.234;13.006;2023-04-08T06:54:48;7.45;;;5.97;;
25615;SDS011;13482;48.234;13.006;2023-04-08T06:57:15;6.80;;;5.60;;
25615;SDS011;13482;48.234;13.006;2023-04-08T06:59:42;7.18;;;5.63;;
25615;SDS011;13482;48.234;13.006;2023-04-08T07:02:09;7.18;;;5.50;;
25615;SDS011;13482;48.234;13.006;2023-04-08T07:04:37;6.90;;;5.03;;
25615;SDS011;13482;48.234;13.006;2023-04-08T07:07:04;8.30;;;5.65;;
25615;SDS011;13482;48.234;13.006;2023-04-08T07:09:31;8.05;;;6.10;;
25615;SDS011;13482;48.234;13.006;2023-04-08T07:11:58;10.93;;;8.90;;
25615;SDS011;13482;48.234;13.006;2023-04-08T07:14:25;10.63;;;7.82;;
25615;SDS011;13482;48.234;13.006;2023-04-08T07:16:52;8.50;;;7.20;;
25615;SDS011;13482;48.234;13.006;2023-04-08T07:19:19;8.15;;;6.63;;
25615;SDS011;13482;48.234;13.006;2023-04-08T07:21:48;6.95;;;5.47;;
25615;SDS011;13482;48.234;13.006;2023-04-08T07:24:15;6.60;;;5.00;;
25615;SDS011;13482;48.234;13.006;2023-04-08T07:26:42;6.70;;;5.57;;
25615;SDS011;13482;48.234;13.006;2023-04-08T07:29:10;7.82;;;6.45;;
25615;SDS011;13482;48.234;13.006;2023-04-08T07:31:37;6.10;;;5.45;;
25615;SDS011;13482;48.234;13.006;2023-04-08T07:34:04;7.38;;;5.68;;
25615;SDS011;13482;48.234;13.006;2023-04-08T07:36:31;8.88;;;5.93;;
25615;SDS011;13482;48.234;13.006;2023-04-08T07:38:59;7.80;;;6.35;;
25615;SDS011;13482;48.234;13.006;2023-04-08T07:41:26;8.02;;;5.95;;
25615;SDS011;13482;48.234;13.006;2023-04-08T07:43:53;7.25;;;5.68;;
25615;SDS011;13482;48.234;13.006;2023-04-08T07:46:21;8.70;;;6.28;;
25615;SDS011;13482;48.234;13.006;2023-04-08T07:48:50;8.80;;;6.00;;
25615;SDS011;13482;48.234;13.006;2023-04-08T07:51:17;8.48;;;6.65;;
25615;SDS011;13482;48.234;13.006;2023-04-08T07:53:46;8.57;;;6.57;;
25615;SDS011;13482;48.234;13.006;2023-04-08T07:56:14;7.65;;;6.40;;
25615;SDS011;13482;48.234;13.006;2023-04-08T07:58:43;8.85;;;6.80;;
25615;SDS011;13482;48.234;13.006;2023-04-08T08:03:45;6.63;;;5.32;;
25615;SDS011;13482;48.234;13.006;2023-04-08T08:06:16;6.72;;;5.47;;
25615;SDS011;13482;48.234;13.006;2023-04-08T08:08:44;7.22;;;5.25;;
25615;SDS011;13482;48.234;13.006;2023-04-08T08:11:11;6.97;;;5.05;;
25615;SDS011;13482;48.234;13.006;2023-04-08T08:13:38;6.40;;;5.10;;
25615;SDS011;13482;48.234;13.006;2023-04-08T08:16:06;5.85;;;4.88;;
25615;SDS011;13482;48.234;13.006;2023-04-08T08:18:37;7.35;;;4.95;;
25615;SDS011;13482;48.234;13.006;2023-04-08T08:21:06;6.95;;;5.22;;
25615;SDS011;13482;48.234;13.006;2023-04-08T08:23:34;6.50;;;5.32;;
25615;SDS011;13482;48.234;13.006;2023-04-08T08:26:03;7.15;;;5.30;;
25615;SDS011;13482;48.234;13.006;2023-04-08T08:28:35;7.00;;;5.35;;
25615;SDS011;13482;48.234;13.006;2023-04-08T08:31:04;6.70;;;5.05;;
25615;SDS011;13482;48.234;13.006;2023-04-08T08:33:32;6.43;;;5.13;;
25615;SDS011;13482;48.234;13.006;2023-04-08T08:35:59;7.03;;;5.15;;
25615;SDS011;13482;48.234;13.006;2023-04-08T08:38:27;7.10;;;5.22;;
25615;SDS011;13482;48.234;13.006;2023-04-08T08:40:56;6.40;;;5.05;;
25615;SDS011;13482;48.234;13.006;2023-04-08T08:43:25;6.43;;;4.80;;
25615;SDS011;13482;48.234;13.006;2023-04-08T08:45:53;6.82;;;5.53;;
25615;SDS011;13482;48.234;13.006;2023-04-08T08:48:21;6.38;;;4.90;;
25615;SDS011;13482;48.234;13.006;2023-04-08T08:50:48;7.10;;;5.32;;
25615;SDS011;13482;48.234;13.006;2023-04-08T08:53:16;7.55;;;4.97;;
25615;SDS011;13482;48.234;13.006;2023-04-08T08:55:45;6.63;;;5.45;;
25615;SDS011;13482;48.234;13.006;2023-04-08T08:58:15;7.22;;;5.63;;
25615;SDS011;13482;48.234;13.006;2023-04-08T09:00:42;7.70;;;6.10;;
25615;SDS011;13482;48.234;13.006;2023-04-08T09:03:20;7.00;;;5.70;;
25615;SDS011;13482;48.234;13.006;2023-04-08T09:05:54;6.70;;;5.32;;
25615;SDS011;13482;48.234;13.006;2023-04-08T09:13:47;7.57;;;5.97;;
25615;SDS011;13482;48.234;13.006;2023-04-08T09:16:18;7.20;;;5.68;;
25615;SDS011;13482;48.234;13.006;2023-04-08T09:18:46;7.47;;;6.00;;
25615;SDS011;13482;48.234;13.006;2023-04-08T09:21:15;7.82;;;6.15;;
25615;SDS011;13482;48.234;13.006;2023-04-08T09:23:44;6.32;;;5.53;;
25615;SDS011;13482;48.234;13.006;2023-04-08T09:26:22;7.72;;;6.00;;
25615;SDS011;13482;48.234;13.006;2023-04-08T09:31:56;7.38;;;5.93;;
25615;SDS011;13482;48.234;13.006;2023-04-08T09:34:25;10.85;;;8.95;;
25615;SDS011;13482;48.234;13.006;2023-04-08T09:36:54;9.82;;;8.43;;
25615;SDS011;13482;48.234;13.006;2023-04-08T09:39:22;10.15;;;8.80;;
25615;SDS011;13482;48.234;13.006;2023-04-08T09:41:50;9.38;;;7.72;;
25615;SDS011;13482;48.234;13.006;2023-04-08T09:44:19;7.18;;;6.40;;
25615;SDS011;13482;48.234;13.006;2023-04-08T09:49:28;7.13;;;6.32;;
25615;SDS011;13482;48.234;13.006;2023-04-08T09:52:12;6.60;;;5.70;;
25615;SDS011;13482;48.234;13.006;2023-04-08T09:57:30;6.75;;;5.43;;
25615;SDS011;13482;48.234;13.006;2023-04-08T10:00:04;7.53;;;5.38;;
25615;SDS011;13482;48.234;13.006;2023-04-08T10:03:05;6.97;;;6.18;;
25615;SDS011;13482;48.234;13.006;2023-04-08T10:05:51;7.47;;;6.55;;
25615;SDS011;13482;48.234;13.006;2023-04-08T10:08:19;8.13;;;6.88;;
25615;SDS011;13482;48.234;13.006;2023-04-08T10:10:48;8.10;;;6.55;;
25615;SDS011;13482;48.234;13.006;2023-04-08T10:13:15;7.60;;;6.65;;
25615;SDS011;13482;48.234;13.006;2023-04-08T10:15:42;8.73;;;6.75;;
25615;SDS011;13482;48.234;13.006;2023-04-08T10:20:44;8.20;;;7.03;;
25615;SDS011;13482;48.234;13.006;2023-04-08T10:23:17;8.55;;;6.75;;
25615;SDS011;13482;48.234;13.006;2023-04-08T10:25:46;7.18;;;6.32;;
25615;SDS011;13482;48.234;13.006;2023-04-08T10:30:48;8.05;;;6.65;;
25615;SDS011;13482;48.234;13.006;2023-04-08T10:33:22;8.40;;;6.82;;
25615;SDS011;13482;48.234;13.006;2023-04-08T10:38:38;9.25;;;7.82;;
25615;SDS011;13482;48.234;13.006;2023-04-08T10:41:11;8.40;;;7.00;;
25615;SDS011;13482;48.234;13.006;2023-04-08T10:43:39;8.38;;;7.38;;
25615;SDS011;13482;48.234;13.006;2023-04-08T10:46:08;8.15;;;7.28;;
25615;SDS011;13482;48.234;13.006;2023-04-08T10:48:37;8.45;;;7.43;;
25615;SDS011;13482;48.234;13.006;2023-04-08T10:51:04;8.45;;;7.50;;
25615;SDS011;13482;48.234;13.006;2023-04-08T10:53:32;8.48;;;6.85;;
25615;SDS011;13482;48.234;13.006;2023-04-08T10:58:50;8.05;;;6.35;;
25615;SDS011;13482;48.234;13.006;2023-04-08T11:01:20;7.40;;;5.53;;
25615;SDS011;13482;48.234;13.006;2023-04-08T11:03:48;7.32;;;5.80;;
25615;SDS011;13482;48.234;13.006;2023-04-08T11:06:17;7.30;;;6.05;;
25615;SDS011;13482;48.234;13.006;2023-04-08T11:08:45;6.15;;;5.28;;
25615;SDS011;13482;48.234;13.006;2023-04-08T11:11:12;6.93;;;5.72;;
25615;SDS011;13482;48.234;13.006;2023-04-08T11:13:41;7.95;;;5.82;;
25615;SDS011;13482;48.234;13.006;2023-04-08T11:16:19;7.05;;;5.55;;
25615;SDS011;13482;48.234;13.006;2023-04-08T11:18:49;6.90;;;5.85;;
25615;SDS011;13482;48.234;13.006;2023-04-08T11:21:17;8.27;;;6.70;;
25615;SDS011;13482;48.234;13.006;2023-04-08T11:23:44;7.85;;;5.95;;
25615;SDS011;13482;48.234;13.006;2023-04-08T11:26:16;7.82;;;6.28;;
25615;SDS011;13482;48.234;13.006;2023-04-08T11:28:45;7.40;;;6.25;;
25615;SDS011;13482;48.234;13.006;2023-04-08T11:31:16;7.70;;;6.32;;
25615;SDS011;13482;48.234;13.006;2023-04-08T11:33:51;6.50;;;5.75;;
25615;SDS011;13482;48.234;13.006;2023-04-08T11:36:20;6.32;;;5.35;;
25615;SDS011;13482;48.234;13.006;2023-04-08T11:38:48;7.53;;;5.93;;
25615;SDS011;13482;48.234;13.006;2023-04-08T11:41:15;7.88;;;6.38;;
25615;SDS011;13482;48.234;13.006;2023-04-08T11:43:52;7.10;;;6.13;;
25615;SDS011;13482;48.234;13.006;2023-04-08T11:46:22;8.48;;;7.03;;
25615;SDS011;13482;48.234;13.006;2023-04-08T11:49:03;8.35;;;6.80;;
25615;SDS011;13482;48.234;13.006;2023-04-08T11:51:32;7.47;;;6.05;;
25615;SDS011;13482;48.234;13.006;2023-04-08T11:54:04;6.95;;;5.70;;
25615;SDS011;13482;48.234;13.006;2023-04-08T11:56:43;6.60;;;5.82;;
25615;SDS011;13482;48.234;13.006;2023-04-08T11:59:13;7.70;;;6.25;;
25615;SDS011;13482;48.234;13.006;2023-04-08T12:01:41;7.72;;;6.07;;
25615;SDS011;13482;48.234;13.006;2023-04-08T12:04:09;8.13;;;7.13;;
25615;SDS011;13482;48.234;13.006;2023-04-08T12:06:37;8.90;;;7.65;;
25615;SDS011;13482;48.234;13.006;2023-04-08T12:09:04;8.25;;;6.25;;
25615;SDS011;13482;48.234;13.006;2023-04-08T12:11:31;6.93;;;5.75;;
25615;SDS011;13482;48.234;13.006;2023-04-08T12:13:58;9.77;;;5.72;;
25615;SDS011;13482;48.234;13.006;2023-04-08T12:16:26;6.72;;;5.82;;
25615;SDS011;13482;48.234;13.006;2023-04-08T12:18:53;6.25;;;5.57;;
25615;SDS011;13482;48.234;13.006;2023-04-08T12:21:20;8.48;;;6.60;;
25615;SDS011;13482;48.234;13.006;2023-04-08T12:23:48;6.68;;;5.97;;
25615;SDS011;13482;48.234;13.006;2023-04-08T12:26:16;7.20;;;5.90;;
25615;SDS011;13482;48.234;13.006;2023-04-08T12:28:43;6.75;;;5.60;;
25615;SDS011;13482;48.234;13.006;2023-04-08T12:31:11;6.63;;;5.47;;
25615;SDS011;13482;48.234;13.006;2023-04-08T12:33:38;7.50;;;6.25;;
25615;SDS011;13482;48.234;13.006;2023-04-08T12:36:06;7.50;;;5.82;;
25615;SDS011;13482;48.234;13.006;2023-04-08T12:38:33;9.13;;;7.22;;
25615;SDS011;13482;48.234;13.006;2023-04-08T12:41:00;8.52;;;6.97;;
25615;SDS011;13482;48.234;13.006;2023-04-08T12:43:28;8.38;;;6.57;;
25615;SDS011;13482;48.234;13.006;2023-04-08T12:45:55;7.97;;;6.32;;
25615;SDS011;13482;48.234;13.006;2023-04-08T12:48:22;7.28;;;5.88;;
25615;SDS011;13482;48.234;13.006;2023-04-08T12:50:50;9.63;;;6.57;;
25615;SDS011;13482;48.234;13.006;2023-04-08T12:53:17;6.72;;;5.40;;
25615;SDS011;13482;48.234;13.006;2023-04-08T12:55:44;7.80;;;6.05;;
25615;SDS011;13482;48.234;13.006;2023-04-08T12:58:14;6.85;;;5.38;;
25615;SDS011;13482;48.234;13.006;2023-04-08T13:00:42;7.90;;;5.47;;
25615;SDS011;13482;48.234;13.006;2023-04-08T13:03:12;9.38;;;6.22;;
25615;SDS011;13482;48.234;13.006;2023-04-08T13:05:43;8.68;;;5.88;;
25615;SDS011;13482;48.234;13.006;2023-04-08T13:08:10;7.55;;;6.10;;
25615;SDS011;13482;48.234;13.006;2023-04-08T13:10:37;7.75;;;6.15;;
25615;SDS011;13482;48.234;13.006;2023-04-08T13:13:04;9.10;;;6.93;;
25615;SDS011;13482;48.234;13.006;2023-04-08T13:15:32;17.73;;;9.48;;
25615;SDS011;13482;48.234;13.006;2023-04-08T13:17:59;15.95;;;10.07;;
25615;SDS011;13482;48.234;13.006;2023-04-08T13:20:26;11.85;;;8.40;;
25615;SDS011;13482;48.234;13.006;2023-04-08T13:22:53;15.70;;;9.52;;
25615;SDS011;13482;48.234;13.006;2023-04-08T13:25:21;12.80;;;8.27;;
25615;SDS011;13482;48.234;13.006;2023-04-08T13:27:48;9.88;;;7.45;;
25615;SDS011;13482;48.234;13.006;2023-04-08T13:30:15;9.00;;;6.88;;
25615;SDS011;13482;48.234;13.006;2023-04-08T13:32:42;8.20;;;6.70;;
25615;SDS011;13482;48.234;13.006;2023-04-08T13:35:10;8.13;;;6.88;;
25615;SDS011;13482;48.234;13.006;2023-04-08T13:37:37;14.60;;;9.15;;
25615;SDS011;13482;48.234;13.006;2023-04-08T13:40:04;9.65;;;7.07;;
25615;SDS011;13482;48.234;13.006;2023-04-08T13:42:34;10.30;;;7.28;;
25615;SDS011;13482;48.234;13.006;2023-04-08T13:45:01;7.97;;;6.50;;
25615;SDS011;13482;48.234;13.006;2023-04-08T13:47:28;7.90;;;6.43;;
25615;SDS011;13482;48.234;13.006;2023-04-08T13:49:56;11.05;;;7.70;;
25615;SDS011;13482;48.234;13.006;2023-04-08T13:52:23;13.05;;;8.50;;
25615;SDS011;13482;48.234;13.006;2023-04-08T13:54:50;13.07;;;8.25;;
25615;SDS011;13482;48.234;13.006;2023-04-08T13:57:18;25.40;;;13.90;;
25615;SDS011;13482;48.234;13.006;2023-04-08T13:59:45;13.57;;;8.50;;
25615;SDS011;13482;48.234;13.006;2023-04-08T14:02:12;13.93;;;8.82;;
25615;SDS011;13482;48.234;13.006;2023-04-08T14:04:40;14.32;;;8.98;;
25615;SDS011;13482;48.234;13.006;2023-04-08T14:07:07;10.40;;;7.32;;
25615;SDS011;13482;48.234;13.006;2023-04-08T14:09:34;10.00;;;7.13;;
25615;SDS011;13482;48.234;13.006;2023-04-08T14:12:02;9.32;;;6.82;;
25615;SDS011;13482;48.234;13.006;2023-04-08T14:14:29;7.30;;;6.28;;
25615;SDS011;13482;48.234;13.006;2023-04-08T14:16:57;7.20;;;5.68;;
25615;SDS011;13482;48.234;13.006;2023-04-08T14:19:24;6.80;;;5.40;;
25615;SDS011;13482;48.234;13.006;2023-04-08T14:21:51;7.10;;;5.88;;
25615;SDS011;13482;48.234;13.006;2023-04-08T14:24:18;7.85;;;5.68;;
25615;SDS011;13482;48.234;13.006;2023-04-08T14:26:45;6.80;;;5.72;;
25615;SDS011;13482;48.234;13.006;2023-04-08T14:29:12;6.05;;;5.45;;
25615;SDS011;13482;48.234;13.006;2023-04-08T14:31:39;6.85;;;5.78;;
25615;SDS011;13482;48.234;13.006;2023-04-08T14:34:07;7.00;;;5.95;;
25615;SDS011;13482;48.234;13.006;2023-04-08T14:36:34;6.95;;;5.53;;
25615;SDS011;13482;48.234;13.006;2023-04-08T14:39:01;6.93;;;6.07;;
25615;SDS011;13482;48.234;13.006;2023-04-08T14:41:28;7.00;;;6.25;;
25615;SDS011;13482;48.234;13.006;2023-04-08T14:43:56;6.90;;;5.80;;
25615;SDS011;13482;48.234;13.006;2023-04-08T14:46:24;7.07;;;6.05;;
25615;SDS011;13482;48.234;13.006;2023-04-08T14:48:54;6.25;;;5.38;;
25615;SDS011;13482;48.234;13.006;2023-04-08T14:51:21;6.45;;;5.53;;
25615;SDS011;13482;48.234;13.006;2023-04-08T14:53:48;6.15;;;4.75;;
25615;SDS011;13482;48.234;13.006;2023-04-08T14:56:15;6.65;;;5.72;;
25615;SDS011;13482;48.234;13.006;2023-04-08T14:58:42;5.72;;;5.00;;
25615;SDS011;13482;48.234;13.006;2023-04-08T15:01:09;6.50;;;5.22;;
25615;SDS011;13482;48.234;13.006;2023-04-08T15:03:37;5.97;;;5.30;;
25615;SDS011;13482;48.234;13.006;2023-04-08T15:06:04;7.75;;;5.43;;
25615;SDS011;13482;48.234;13.006;2023-04-08T15:08:31;6.20;;;5.13;;
25615;SDS011;13482;48.234;13.006;2023-04-08T15:11:00;6.75;;;5.65;;